Time;durP1;ratioP1;P1;durP2;ratioP2;P2;SDS_P1;SDS_P2;PMS_P1;PMS_P2;Temp;Humidity;BMP_temperature;BMP_pressure;BME280_temperature;BME280_humidity;BME280_pressure;Samples;Min_cycle;Max_cycle;Signal;HPM_P1;HPM_P2
2021/12/03 00:01:16;;;;;;;2.03;1.30;;;;;;;;;;4970298;28;20018;-58
2021/12/03 00:03:43;;;;;;;3.40;1.10;;;;;;;;;;4967859;28;20028;-58
2021/12/03 00:06:11;;;;;;;2.33;1.40;;;;;;;;;;4951441;29;20043;-58
2021/12/03 00:08:37;;;;;;;2.10;1.20;;;;;;;;;;4951206;29;20031;-59
2021/12/03 00:11:05;;;;;;;2.17;1.20;;;;;;;;;;4955878;28;20054;-58
2021/12/03 00:13:33;;;;;;;1.70;1.10;;;;;;;;;;4958875;28;20027;-59
2021/12/03 00:16:00;;;;;;;1.60;1.13;;;;;;;;;;4956480;28;20031;-58
2021/12/03 00:18:27;;;;;;;1.57;1.17;;;;;;;;;;4957488;28;20074;-58
2021/12/03 00:20:54;;;;;;;1.73;1.10;;;;;;;;;;4956396;28;20031;-58
2021/12/03 00:23:22;;;;;;;3.40;1.23;;;;;;;;;;4951426;29;20024;-58
2021/12/03 00:25:49;;;;;;;3.27;0.97;;;;;;;;;;4951113;28;20114;-58
2021/12/03 00:28:15;;;;;;;1.97;1.23;;;;;;;;;;4959144;28;20031;-58
2021/12/03 00:30:42;;;;;;;2.53;1.20;;;;;;;;;;4957055;28;20478;-58
2021/12/03 00:33:09;;;;;;;2.00;1.10;;;;;;;;;;4963038;28;20476;-59
2021/12/03 00:35:36;;;;;;;1.83;1.10;;;;;;;;;;4974348;28;20039;-59
2021/12/03 00:38:04;;;;;;;1.77;1.33;;;;;;;;;;4973492;28;20093;-58
2021/12/03 00:40:32;;;;;;;3.00;1.17;;;;;;;;;;4975144;28;20035;-58
2021/12/03 00:43:00;;;;;;;2.20;1.23;;;;;;;;;;4975200;28;20034;-58
2021/12/03 00:45:27;;;;;;;2.80;1.60;;;;;;;;;;4962595;28;20039;-58
2021/12/03 00:47:54;;;;;;;2.37;1.63;;;;;;;;;;4962755;28;20035;-58
2021/12/03 00:50:22;;;;;;;2.47;1.40;;;;;;;;;;4950677;29;20071;-58
2021/12/03 00:52:49;;;;;;;3.30;1.50;;;;;;;;;;4950449;29;20041;-58
2021/12/03 00:55:17;;;;;;;7.13;1.80;;;;;;;;;;4954332;28;20517;-58
2021/12/03 00:57:44;;;;;;;2.53;1.90;;;;;;;;;;4959904;28;20038;-58
2021/12/03 01:00:18;;;;;;;3.77;1.43;;;;;;;;;;4970306;28;20019;-58
2021/12/03 01:02:45;;;;;;;2.75;1.48;;;;;;;;;;4955093;29;20102;-58
2021/12/03 01:05:12;;;;;;;6.07;1.50;;;;;;;;;;4955632;28;20043;-58
2021/12/03 01:07:38;;;;;;;2.73;1.73;;;;;;;;;;4954260;28;20023;-58
2021/12/03 01:10:06;;;;;;;2.77;1.73;;;;;;;;;;4969422;28;20413;-58
2021/12/03 01:12:33;;;;;;;2.37;1.50;;;;;;;;;;4969530;28;20409;-58
2021/12/03 01:15:00;;;;;;;2.70;1.53;;;;;;;;;;4968877;28;20030;-58
2021/12/03 01:17:27;;;;;;;2.33;1.70;;;;;;;;;;4967780;28;20113;-58
2021/12/03 01:19:54;;;;;;;2.57;1.70;;;;;;;;;;4974688;28;20030;-58
2021/12/03 01:22:20;;;;;;;2.30;1.50;;;;;;;;;;4974698;28;20023;-58
2021/12/03 01:24:47;;;;;;;3.10;1.60;;;;;;;;;;4968912;28;20114;-57
2021/12/03 01:27:14;;;;;;;2.37;1.47;;;;;;;;;;4955376;28;20375;-58
2021/12/03 01:29:41;;;;;;;2.90;1.30;;;;;;;;;;4952843;28;20059;-58
2021/12/03 01:32:08;;;;;;;7.97;2.93;;;;;;;;;;4950036;28;20078;-58
2021/12/03 01:34:34;;;;;;;3.70;2.37;;;;;;;;;;4949534;29;20098;-58
2021/12/03 01:37:01;;;;;;;3.83;2.00;;;;;;;;;;4949842;29;20034;-58
2021/12/03 01:39:28;;;;;;;6.37;2.90;;;;;;;;;;4967564;28;20034;-58
2021/12/03 01:41:55;;;;;;;5.33;2.87;;;;;;;;;;4974101;28;20069;-58
2021/12/03 01:44:21;;;;;;;5.17;2.93;;;;;;;;;;4974013;28;20038;-58
2021/12/03 01:46:48;;;;;;;5.10;2.80;;;;;;;;;;4973058;28;20045;-58
2021/12/03 01:49:15;;;;;;;5.07;2.90;;;;;;;;;;4960470;28;20374;-58
2021/12/03 01:51:42;;;;;;;4.23;2.67;;;;;;;;;;4950747;28;20098;-58
2021/12/03 01:54:09;;;;;;;6.27;2.93;;;;;;;;;;4949601;28;20039;-58
2021/12/03 01:56:38;;;;;;;4.67;3.13;;;;;;;;;;4949403;28;20035;-58
2021/12/03 01:59:06;;;;;;;5.50;3.10;;;;;;;;;;4961113;28;20042;-58
2021/12/03 02:01:33;;;;;;;4.33;2.50;;;;;;;;;;4971208;28;20117;-58
2021/12/03 02:04:01;;;;;;;4.47;2.60;;;;;;;;;;4973546;28;20069;-58
2021/12/03 02:06:29;;;;;;;4.23;2.80;;;;;;;;;;4973476;28;20516;-58
2021/12/03 02:08:56;;;;;;;4.37;2.80;;;;;;;;;;4963127;28;20484;-57
2021/12/03 02:11:23;;;;;;;6.33;3.10;;;;;;;;;;4954688;28;20055;-58
2021/12/03 02:13:50;;;;;;;5.80;2.83;;;;;;;;;;4951637;29;20447;-57
2021/12/03 02:16:19;;;;;;;5.17;2.70;;;;;;;;;;4948840;28;20023;-58
2021/12/03 02:18:46;;;;;;;5.17;2.53;;;;;;;;;;4957702;28;20087;-58
2021/12/03 02:21:14;;;;;;;3.57;2.43;;;;;;;;;;4967761;28;20023;-58
2021/12/03 02:23:41;;;;;;;5.70;2.90;;;;;;;;;;4970672;28;20117;-58
2021/12/03 02:26:08;;;;;;;5.17;3.10;;;;;;;;;;4973202;28;20417;-58
2021/12/03 02:28:36;;;;;;;4.30;2.70;;;;;;;;;;4966115;28;20501;-57
2021/12/03 02:31:04;;;;;;;7.53;2.43;;;;;;;;;;4955357;28;20062;-58
2021/12/03 02:33:32;;;;;;;3.67;2.33;;;;;;;;;;4954414;29;20027;-57
2021/12/03 02:35:59;;;;;;;4.43;3.00;;;;;;;;;;4970257;28;20475;-58
2021/12/03 02:38:26;;;;;;;3.57;2.10;;;;;;;;;;4968198;28;20038;-59
2021/12/03 02:40:53;;;;;;;4.77;3.00;;;;;;;;;;4960046;28;20102;-58
2021/12/03 02:43:20;;;;;;;4.17;2.70;;;;;;;;;;4948954;29;20025;-57
2021/12/03 02:45:47;;;;;;;5.77;2.60;;;;;;;;;;4950828;28;20051;-58
2021/12/03 02:48:14;;;;;;;3.77;2.43;;;;;;;;;;4954289;28;20483;-57
2021/12/03 02:50:41;;;;;;;3.33;2.40;;;;;;;;;;4960793;28;20030;-57
2021/12/03 02:53:08;;;;;;;3.97;2.50;;;;;;;;;;4953709;29;20435;-57
2021/12/03 02:55:34;;;;;;;7.57;3.40;;;;;;;;;;4954021;28;20035;-59
2021/12/03 02:58:02;;;;;;;6.80;3.43;;;;;;;;;;4971318;28;20023;-58
2021/12/03 03:00:29;;;;;;;4.97;3.43;;;;;;;;;;4963634;28;20396;-57
2021/12/03 03:02:56;;;;;;;7.53;3.40;;;;;;;;;;4950815;28;20483;-58
2021/12/03 03:05:24;;;;;;;4.57;3.30;;;;;;;;;;4952715;28;20035;-58
2021/12/03 03:07:51;;;;;;;6.40;3.43;;;;;;;;;;4954124;29;20038;-58
2021/12/03 03:10:22;;;;;;;7.07;3.30;;;;;;;;;;4957681;28;20043;-57
2021/12/03 03:12:49;;;;;;;5.10;3.37;;;;;;;;;;4969351;28;20039;-58
2021/12/03 03:15:16;;;;;;;5.37;3.37;;;;;;;;;;4975059;28;20090;-58
2021/12/03 03:17:44;;;;;;;5.33;2.27;;;;;;;;;;4957732;28;20043;-58
2021/12/03 03:20:11;;;;;;;3.83;2.53;;;;;;;;;;4956398;28;20102;-58
2021/12/03 03:22:38;;;;;;;4.97;2.83;;;;;;;;;;4971716;28;20129;-57
2021/12/03 03:25:07;;;;;;;9.13;3.17;;;;;;;;;;4970962;28;20034;-58
2021/12/03 03:27:34;;;;;;;5.20;2.97;;;;;;;;;;4952656;28;20039;-58
2021/12/03 03:30:01;;;;;;;6.30;4.23;;;;;;;;;;4953464;28;20070;-57
2021/12/03 03:32:28;;;;;;;5.90;3.57;;;;;;;;;;4958334;28;20038;-57
2021/12/03 03:34:55;;;;;;;11.93;3.60;;;;;;;;;;4957312;28;20042;-57
2021/12/03 03:37:22;;;;;;;5.00;3.00;;;;;;;;;;4957202;28;20054;-57
2021/12/03 03:39:49;;;;;;;6.57;3.23;;;;;;;;;;4956836;28;20034;-58
2021/12/03 03:42:16;;;;;;;5.07;3.30;;;;;;;;;;4962887;28;20027;-58
2021/12/03 03:44:43;;;;;;;4.47;2.87;;;;;;;;;;4965602;28;20039;-58
2021/12/03 03:47:10;;;;;;;6.77;3.40;;;;;;;;;;4952942;28;20039;-58
2021/12/03 03:49:37;;;;;;;5.83;3.30;;;;;;;;;;4951727;28;20023;-57
2021/12/03 03:52:05;;;;;;;5.67;3.00;;;;;;;;;;4963908;28;20027;-58
2021/12/03 03:54:31;;;;;;;5.70;3.57;;;;;;;;;;4957012;29;20162;-57
2021/12/03 03:56:59;;;;;;;5.23;3.30;;;;;;;;;;4960948;28;20056;-58
2021/12/03 03:59:26;;;;;;;4.97;2.90;;;;;;;;;;4976233;28;20031;-58
2021/12/03 04:01:52;;;;;;;4.77;2.63;;;;;;;;;;4970527;28;20031;-57
2021/12/03 04:04:21;;;;;;;5.30;3.13;;;;;;;;;;4955754;29;20039;-57
2021/12/03 04:06:49;;;;;;;5.60;2.87;;;;;;;;;;4952974;28;20050;-58
2021/12/03 04:09:16;;;;;;;4.37;2.70;;;;;;;;;;4970626;28;20058;-58
2021/12/03 04:11:43;;;;;;;6.47;3.00;;;;;;;;;;4966592;28;20114;-57
2021/12/03 04:14:10;;;;;;;7.27;3.30;;;;;;;;;;4951570;28;20554;-58
2021/12/03 04:16:36;;;;;;;4.83;3.03;;;;;;;;;;4959617;28;20021;-58
2021/12/03 04:19:03;;;;;;;4.97;2.93;;;;;;;;;;4975297;28;20093;-57
2021/12/03 04:21:30;;;;;;;5.03;2.93;;;;;;;;;;4976018;28;20054;-57
2021/12/03 04:23:57;;;;;;;6.40;3.33;;;;;;;;;;4964820;28;20024;-57
2021/12/03 04:26:24;;;;;;;5.67;3.07;;;;;;;;;;4955212;28;20483;-57
2021/12/03 04:28:51;;;;;;;5.67;3.30;;;;;;;;;;4970538;28;20041;-58
2021/12/03 04:31:17;;;;;;;4.97;3.23;;;;;;;;;;4969417;28;20486;-57
2021/12/03 04:33:44;;;;;;;6.23;3.00;;;;;;;;;;4958969;28;20034;-59
2021/12/03 04:36:11;;;;;;;4.20;2.43;;;;;;;;;;4970125;28;20031;-58
2021/12/03 04:38:38;;;;;;;5.00;3.53;;;;;;;;;;4975134;28;20030;-59
2021/12/03 04:41:05;;;;;;;8.13;3.27;;;;;;;;;;4975445;28;20023;-59
2021/12/03 04:43:32;;;;;;;5.83;3.90;;;;;;;;;;4957652;28;20487;-58
2021/12/03 04:45:59;;;;;;;5.97;3.07;;;;;;;;;;4975503;28;20379;-58
2021/12/03 04:48:26;;;;;;;4.73;3.23;;;;;;;;;;4973191;28;20054;-58
2021/12/03 04:50:52;;;;;;;4.63;2.83;;;;;;;;;;4969473;28;20833;-59
2021/12/03 04:53:19;;;;;;;4.87;3.27;;;;;;;;;;4970229;28;20027;-59
2021/12/03 04:55:46;;;;;;;5.83;3.37;;;;;;;;;;4958425;28;20027;-58
2021/12/03 04:58:13;;;;;;;6.33;3.20;;;;;;;;;;4969687;28;20481;-59
2021/12/03 05:00:45;;;;;;;5.00;3.17;;;;;;;;;;4974076;28;20546;-59
2021/12/03 05:03:13;;;;;;;3.30;2.17;;;;;;;;;;4975364;28;20035;-59
2021/12/03 05:05:44;;;;;;;6.67;3.53;;;;;;;;;;4969695;28;20050;-58
2021/12/03 05:08:11;;;;;;;4.73;2.97;;;;;;;;;;4955909;29;20091;-59
2021/12/03 05:10:39;;;;;;;5.33;3.33;;;;;;;;;;4962651;28;20030;-58
2021/12/03 05:13:08;;;;;;;9.17;3.30;;;;;;;;;;4969363;28;20027;-58
2021/12/03 05:15:35;;;;;;;6.20;2.80;;;;;;;;;;4965353;28;20031;-59
2021/12/03 05:18:02;;;;;;;6.00;3.27;;;;;;;;;;4950129;28;20107;-58
2021/12/03 05:20:29;;;;;;;5.00;3.00;;;;;;;;;;4950047;28;20562;-59
2021/12/03 05:22:57;;;;;;;5.67;3.40;;;;;;;;;;4955113;29;20039;-58
2021/12/03 05:25:24;;;;;;;5.97;3.27;;;;;;;;;;4956801;28;20047;-58
2021/12/03 05:27:52;;;;;;;6.30;3.90;;;;;;;;;;4974631;28;20370;-58
2021/12/03 05:30:19;;;;;;;6.03;3.00;;;;;;;;;;4974251;28;20109;-58
2021/12/03 05:32:46;;;;;;;5.67;3.63;;;;;;;;;;4974467;28;20077;-59
2021/12/03 05:35:13;;;;;;;6.00;3.40;;;;;;;;;;4967761;28;20493;-59
2021/12/03 05:37:40;;;;;;;5.30;3.53;;;;;;;;;;4950142;29;20027;-58
2021/12/03 05:40:08;;;;;;;4.90;3.27;;;;;;;;;;4949922;28;20110;-59
2021/12/03 05:42:35;;;;;;;4.90;2.90;;;;;;;;;;4949384;28;20097;-58
2021/12/03 05:45:01;;;;;;;4.60;2.63;;;;;;;;;;4954150;28;20042;-60
2021/12/03 05:47:28;;;;;;;4.73;3.03;;;;;;;;;;4973484;28;20023;-59
2021/12/03 05:49:55;;;;;;;4.47;2.70;;;;;;;;;;4973690;28;20026;-59
2021/12/03 05:52:22;;;;;;;7.73;3.30;;;;;;;;;;4974190;28;20371;-58
2021/12/03 05:54:48;;;;;;;6.60;3.37;;;;;;;;;;4974158;28;20038;-58
2021/12/03 05:57:15;;;;;;;5.27;3.30;;;;;;;;;;4953056;28;20531;-56
2021/12/03 05:59:42;;;;;;;3.80;2.50;;;;;;;;;;4969140;28;20482;-56
2021/12/03 06:02:09;;;;;;;5.60;3.30;;;;;;;;;;4968153;28;20688;-59
2021/12/03 06:04:35;;;;;;;8.93;3.37;;;;;;;;;;4968763;28;20390;-58
2021/12/03 06:07:03;;;;;;;5.67;3.23;;;;;;;;;;4957626;28;20059;-59
2021/12/03 06:09:30;;;;;;;7.13;2.60;;;;;;;;;;4954479;28;20031;-59
2021/12/03 06:11:59;;;;;;;5.77;3.50;;;;;;;;;;4954917;28;20082;-59
2021/12/03 06:14:27;;;;;;;5.37;3.63;;;;;;;;;;4954338;28;20035;-58
2021/12/03 06:16:54;;;;;;;6.30;2.90;;;;;;;;;;4967295;28;20030;-58
2021/12/03 06:19:21;;;;;;;6.67;2.67;;;;;;;;;;4968660;28;20125;-59
2021/12/03 06:21:47;;;;;;;5.63;3.37;;;;;;;;;;4968433;28;20031;-58
2021/12/03 06:24:14;;;;;;;7.70;3.20;;;;;;;;;;4964920;28;20050;-58
2021/12/03 06:26:41;;;;;;;4.83;3.00;;;;;;;;;;4948839;28;20035;-59
2021/12/03 06:29:08;;;;;;;4.90;2.97;;;;;;;;;;4952905;28;20035;-58
2021/12/03 06:31:34;;;;;;;5.20;3.30;;;;;;;;;;4973248;28;20110;-58
2021/12/03 06:34:01;;;;;;;4.47;2.93;;;;;;;;;;4972969;28;20026;-58
2021/12/03 06:36:28;;;;;;;5.27;3.40;;;;;;;;;;4961417;28;20070;-58
2021/12/03 06:38:56;;;;;;;5.53;3.60;;;;;;;;;;4973603;28;20073;-58
2021/12/03 06:41:23;;;;;;;6.10;3.87;;;;;;;;;;4967461;28;20038;-59
2021/12/03 06:43:51;;;;;;;6.40;3.57;;;;;;;;;;4968061;28;20022;-58
2021/12/03 06:46:18;;;;;;;5.80;3.60;;;;;;;;;;4967903;28;20161;-58
2021/12/03 06:48:45;;;;;;;4.23;2.93;;;;;;;;;;4965446;28;20075;-58
2021/12/03 06:51:12;;;;;;;6.27;3.30;;;;;;;;;;4971285;28;20097;-58
2021/12/03 06:53:45;;;;;;;6.03;3.67;;;;;;;;;;4973504;28;20481;-58
2021/12/03 06:56:21;;;;;;;6.07;3.50;;;;;;;;;;4973402;28;20548;-58
2021/12/03 06:58:48;;;;;;;6.23;3.47;;;;;;;;;;4973357;28;20042;-58
2021/12/03 07:01:15;;;;;;;5.57;3.13;;;;;;;;;;4973536;28;20430;-58
2021/12/03 07:03:42;;;;;;;6.40;3.40;;;;;;;;;;4969004;28;20165;-58
2021/12/03 07:06:09;;;;;;;7.17;3.80;;;;;;;;;;4967830;28;20026;-58
2021/12/03 07:08:36;;;;;;;7.73;3.60;;;;;;;;;;4968092;28;20265;-58
2021/12/03 07:11:03;;;;;;;5.13;3.60;;;;;;;;;;4968065;28;20260;-58
2021/12/03 07:13:31;;;;;;;6.77;3.63;;;;;;;;;;4971332;28;20687;-58
2021/12/03 07:15:58;;;;;;;5.00;3.10;;;;;;;;;;4973116;28;20630;-58
2021/12/03 07:18:25;;;;;;;7.33;4.80;;;;;;;;;;4973369;28;20030;-58
2021/12/03 07:20:52;;;;;;;8.63;4.37;;;;;;;;;;4973063;28;20273;-58
2021/12/03 07:23:18;;;;;;;9.97;4.20;;;;;;;;;;4973342;28;20732;-58
2021/12/03 07:25:45;;;;;;;4.77;3.30;;;;;;;;;;4969384;28;20292;-58
2021/12/03 07:28:13;;;;;;;5.30;3.07;;;;;;;;;;4967491;28;20268;-59
2021/12/03 07:30:40;;;;;;;8.23;3.40;;;;;;;;;;4967965;28;20741;-58
2021/12/03 07:33:11;;;;;;;9.17;4.30;;;;;;;;;;4967698;28;20292;-59
2021/12/03 07:35:38;;;;;;;5.80;3.27;;;;;;;;;;4971021;28;20268;-58
2021/12/03 07:38:04;;;;;;;6.20;2.73;;;;;;;;;;4972999;28;20257;-58
2021/12/03 07:40:31;;;;;;;5.80;3.23;;;;;;;;;;4973173;28;20259;-59
2021/12/03 07:42:58;;;;;;;7.07;4.00;;;;;;;;;;4964743;28;20262;-58
2021/12/03 07:45:25;;;;;;;9.10;3.87;;;;;;;;;;4953662;29;20312;-58
2021/12/03 07:47:51;;;;;;;5.20;3.23;;;;;;;;;;4950222;28;20266;-58
2021/12/03 07:50:18;;;;;;;5.03;3.30;;;;;;;;;;4951118;29;20836;-58
2021/12/03 07:52:45;;;;;;;5.57;3.53;;;;;;;;;;4952050;29;20262;-58
2021/12/03 07:55:12;;;;;;;7.03;3.77;;;;;;;;;;4952008;29;20285;-58
2021/12/03 07:57:39;;;;;;;5.80;3.97;;;;;;;;;;4954362;29;20258;-58
2021/12/03 08:00:09;;;;;;;5.60;3.60;;;;;;;;;;4957171;29;20264;-59
2021/12/03 08:02:36;;;;;;;5.87;3.90;;;;;;;;;;4956884;29;20260;-58
2021/12/03 08:05:03;;;;;;;5.37;3.30;;;;;;;;;;4956865;29;20344;-58
2021/12/03 08:07:30;;;;;;;5.00;3.23;;;;;;;;;;4956664;29;20674;-58
2021/12/03 08:09:57;;;;;;;5.10;3.47;;;;;;;;;;4953514;29;20289;-58
2021/12/03 08:12:24;;;;;;;6.37;3.73;;;;;;;;;;4951467;29;20261;-58
2021/12/03 08:14:50;;;;;;;5.90;3.60;;;;;;;;;;4951509;29;20249;-58
2021/12/03 08:17:17;;;;;;;5.30;3.77;;;;;;;;;;4951542;29;20284;-58
2021/12/03 08:19:44;;;;;;;5.60;3.20;;;;;;;;;;4954131;29;20258;-55
2021/12/03 08:22:10;;;;;;;4.70;2.97;;;;;;;;;;4956642;29;20408;-55
2021/12/03 08:24:37;;;;;;;6.47;3.80;;;;;;;;;;4956450;29;20262;-56
2021/12/03 08:27:04;;;;;;;5.50;3.50;;;;;;;;;;4956594;29;20622;-55
2021/12/03 08:29:31;;;;;;;5.77;3.60;;;;;;;;;;4956156;29;20262;-56
2021/12/03 08:31:57;;;;;;;6.23;3.97;;;;;;;;;;4953947;29;20269;-55
2021/12/03 08:34:24;;;;;;;7.13;3.57;;;;;;;;;;4951183;29;20266;-55
2021/12/03 08:36:51;;;;;;;5.40;3.60;;;;;;;;;;4951269;29;20260;-55
2021/12/03 08:39:19;;;;;;;7.07;4.40;;;;;;;;;;4951442;29;20357;-55
2021/12/03 08:41:46;;;;;;;5.20;3.40;;;;;;;;;;4952993;29;20262;-55
2021/12/03 08:44:13;;;;;;;7.83;3.90;;;;;;;;;;4973470;28;20265;-55
2021/12/03 08:46:40;;;;;;;5.23;3.60;;;;;;;;;;4975444;28;20285;-55
2021/12/03 08:50:13;;;;;;;6.33;3.60;;;;;;;;;;4975258;28;20264;-55
2021/12/03 08:57:21;;;;;;;5.50;2.80;;;;;;;;;;4970253;28;20292;-56
2021/12/03 08:59:49;;;;;;;4.40;3.03;;;;;;;;;;4969566;28;20253;-55
2021/12/03 09:02:15;;;;;;;7.93;3.70;;;;;;;;;;4969367;28;20272;-56
2021/12/03 09:04:42;;;;;;;4.63;3.10;;;;;;;;;;4973186;28;20261;-55
2021/12/03 09:07:09;;;;;;;5.30;3.70;;;;;;;;;;4975147;28;21097;-55
2021/12/03 09:09:36;;;;;;;9.90;3.90;;;;;;;;;;4975130;28;20340;-55
2021/12/03 09:12:03;;;;;;;5.97;4.20;;;;;;;;;;4975195;28;20257;-55
2021/12/03 09:14:39;;;;;;;5.80;3.73;;;;;;;;;;4975003;28;20740;-55
2021/12/03 09:19:49;;;;;;;7.47;3.93;;;;;;;;;;4969690;28;20261;-55
2021/12/03 09:22:28;;;;;;;4.97;3.37;;;;;;;;;;4969458;28;20305;-55
2021/12/03 09:24:54;;;;;;;6.03;3.63;;;;;;;;;;4969240;28;20271;-55
2021/12/03 09:27:21;;;;;;;6.43;3.80;;;;;;;;;;4973952;28;20339;-55
2021/12/03 09:29:50;;;;;;;5.10;3.40;;;;;;;;;;4974811;28;20253;-55
2021/12/03 09:32:22;;;;;;;5.70;3.80;;;;;;;;;;4974313;28;20343;-55
2021/12/03 09:34:49;;;;;;;6.07;3.30;;;;;;;;;;4974611;28;20260;-55
2021/12/03 09:37:16;;;;;;;6.23;3.73;;;;;;;;;;4974580;28;20268;-55
2021/12/03 09:39:45;;;;;;;8.63;3.80;;;;;;;;;;4969139;28;20652;-56
2021/12/03 09:42:16;;;;;;;5.33;3.40;;;;;;;;;;4967613;28;20268;-55
2021/12/03 09:44:45;;;;;;;5.93;3.40;;;;;;;;;;4949811;29;20279;-55
2021/12/03 09:47:13;;;;;;;6.43;4.10;;;;;;;;;;4949706;29;20307;-55
2021/12/03 09:49:41;;;;;;;6.00;3.00;;;;;;;;;;4954768;29;20261;-55
2021/12/03 09:55:11;;;;;;;5.77;3.30;;;;;;;;;;4902660;29;20275;-56
2021/12/03 09:57:43;;;;;;;4.30;2.83;;;;;;;;;;4954746;29;20297;-55
2021/12/03 10:06:00;;;;;;;6.97;3.03;;;;;;;;;;4949394;29;20844;-55
2021/12/03 10:09:27;;;;;;;5.90;3.23;;;;;;;;;;4948868;29;20352;-55
2021/12/03 10:14:29;;;;;;;4.03;2.60;;;;;;;;;;4954439;29;20285;-55
2021/12/03 10:20:06;;;;;;;4.43;2.70;;;;;;;;;;4954579;29;20336;-55
2021/12/03 10:39:07;;;;;;;4.32;2.88;;;;;;;;;;4954033;29;20687;-55
2021/12/03 10:44:45;;;;;;;4.55;2.85;;;;;;;;;;4971853;28;20625;-55
2021/12/03 10:47:42;;;;;;;5.63;3.23;;;;;;;;;;4968018;28;20505;-55
2021/12/03 11:12:30;;;;;;;5.03;3.13;;;;;;;;;;4968374;28;20069;-56
2021/12/03 11:26:27;;;;;;;4.80;3.00;;;;;;;;;;4976003;28;20373;-56
2021/12/03 11:28:49;;;;;;;5.03;2.50;;;;;;;;;;4976298;28;20278;-55
2021/12/03 12:18:33;;;;;;;5.20;3.07;;;;;;;;;;4940350;29;20031;-55
2021/12/03 12:47:23;;;;;;;5.10;3.30;;;;;;;;;;4971598;28;20297;-55
2021/12/03 13:08:20;;;;;;;7.70;3.90;;;;;;;;;;4970920;28;20764;-54
2021/12/03 14:03:09;;;;;;;6.80;4.40;;;;;;;;;;4974082;28;20513;-55
2021/12/03 14:25:32;;;;;;;8.40;5.23;;;;;;;;;;4954825;29;20485;-55
2021/12/03 14:42:57;;;;;;;7.97;3.67;;;;;;;;;;4972979;28;20437;-55
2021/12/03 14:45:51;;;;;;;5.87;4.10;;;;;;;;;;4973014;28;20451;-56
2021/12/03 14:51:14;;;;;;;6.30;3.93;;;;;;;;;;4967822;28;20119;-55
2021/12/03 14:56:22;;;;;;;5.43;3.73;;;;;;;;;;4967365;28;20035;-56
2021/12/03 14:59:06;;;;;;;13.13;4.03;;;;;;;;;;4972676;28;20057;-56
2021/12/03 15:01:46;;;;;;;5.20;3.83;;;;;;;;;;4976722;28;20478;-58
2021/12/03 15:07:03;;;;;;;7.73;4.00;;;;;;;;;;4977059;28;20034;-58
2021/12/03 15:09:34;;;;;;;5.97;3.83;;;;;;;;;;4976864;28;20101;-58
2021/12/03 15:25:50;;;;;;;5.60;3.50;;;;;;;;;;4976459;28;20113;-58
2021/12/03 15:36:19;;;;;;;;;;;;;;;;;;4961879;28;20482;-58
2021/12/03 15:39:03;;;;;;;5.77;3.13;;;;;;;;;;4971709;28;19906;-58
2021/12/03 15:58:33;;;;;;;4.57;2.90;;;;;;;;;;4934437;28;20043;-58
2021/12/03 16:07:34;;;;;;;3.80;2.87;;;;;;;;;;4975628;28;20498;-59
2021/12/03 16:09:51;;;;;;;4.07;2.90;;;;;;;;;;4962155;28;20030;-59
2021/12/03 16:14:58;;;;;;;3.60;2.50;;;;;;;;;;4976088;28;20039;-59
2021/12/03 16:51:54;;;;;;;2.95;2.20;;;;;;;;;;4974523;28;20475;-59
2021/12/03 16:54:34;;;;;;;3.13;1.90;;;;;;;;;;4965815;28;20035;-59
2021/12/03 16:57:01;;;;;;;2.67;1.90;;;;;;;;;;4956166;28;20114;-59
2021/12/03 16:59:28;;;;;;;8.37;2.20;;;;;;;;;;4973999;28;20034;-59
2021/12/03 17:07:39;;;;;;;;;;;;;;;;;;4970159;28;20498;-59
2021/12/03 17:10:11;;;;;;;4.70;2.83;;;;;;;;;;4969516;28;19950;-59
2021/12/03 17:45:53;;;;;;;;;;;;;;;;;;4954464;29;20042;-59
2021/12/03 17:51:13;;;;;;;7.13;3.10;;;;;;;;;;4969064;28;20502;-59
2021/12/03 17:53:50;;;;;;;4.47;3.00;;;;;;;;;;4968641;28;20039;-59
2021/12/03 17:56:19;;;;;;;4.33;3.07;;;;;;;;;;4971747;28;20066;-59
2021/12/03 17:58:53;;;;;;;7.33;2.73;;;;;;;;;;4974128;28;20058;-60
2021/12/03 18:01:27;;;;;;;4.60;3.08;;;;;;;;;;4974131;28;20035;-59
2021/12/03 18:04:13;;;;;;;6.80;4.60;;;;;;;;;;4973795;28;20062;-60
2021/12/03 18:14:59;;;;;;;5.43;2.90;;;;;;;;;;4968311;28;20042;-59
2021/12/03 18:53:24;;;;;;;;;;;;;;;;;;4972803;28;20049;-59
2021/12/03 18:57:45;;;;;;;3.57;2.23;;;;;;;;;;4968788;28;20041;-58
2021/12/03 19:00:16;;;;;;;4.73;2.73;;;;;;;;;;4968645;28;20035;-59
2021/12/03 19:02:48;;;;;;;5.57;3.00;;;;;;;;;;4966672;28;20035;-59
2021/12/03 19:05:22;;;;;;;4.37;2.73;;;;;;;;;;4954053;29;20035;-59
2021/12/03 19:10:21;;;;;;;5.93;3.00;;;;;;;;;;4953973;29;20051;-59
2021/12/03 19:12:56;;;;;;;5.23;3.27;;;;;;;;;;4952803;29;20039;-59
2021/12/03 19:15:24;;;;;;;5.23;3.20;;;;;;;;;;4951628;29;20031;-59
2021/12/03 19:17:51;;;;;;;7.37;3.20;;;;;;;;;;4949018;29;20062;-59
2021/12/03 19:20:22;;;;;;;5.20;2.80;;;;;;;;;;4960464;28;20023;-59
2021/12/03 19:22:50;;;;;;;8.53;3.27;;;;;;;;;;4968169;28;20039;-59
2021/12/03 19:25:16;;;;;;;5.93;3.00;;;;;;;;;;4970465;28;20031;-59
2021/12/03 19:27:44;;;;;;;5.20;3.30;;;;;;;;;;4973056;28;20501;-59
2021/12/03 19:30:11;;;;;;;9.37;3.27;;;;;;;;;;4973259;28;20027;-59
2021/12/03 19:32:38;;;;;;;4.40;2.87;;;;;;;;;;4973482;28;20387;-59
2021/12/03 19:35:10;;;;;;;5.47;2.80;;;;;;;;;;4972930;28;20023;-59
2021/12/03 19:37:38;;;;;;;4.77;3.03;;;;;;;;;;4970832;28;20081;-59
2021/12/03 19:40:10;;;;;;;4.40;3.00;;;;;;;;;;4968349;28;20027;-59
2021/12/03 19:42:42;;;;;;;4.00;2.70;;;;;;;;;;4968197;28;20474;-59
2021/12/03 19:45:14;;;;;;;5.27;2.57;;;;;;;;;;4969370;28;20054;-59
2021/12/03 19:47:58;;;;;;;6.70;2.60;;;;;;;;;;4973449;28;20078;-59
2021/12/03 19:50:43;;;;;;;3.88;2.22;;;;;;;;;;4976903;28;20089;-59
2021/12/03 19:53:17;;;;;;;6.77;2.83;;;;;;;;;;4976571;28;20035;-59
2021/12/03 19:55:44;;;;;;;4.70;2.77;;;;;;;;;;4976270;28;20025;-59
2021/12/03 19:58:13;;;;;;;4.67;2.70;;;;;;;;;;4976703;28;20038;-59
2021/12/03 20:00:41;;;;;;;8.43;2.70;;;;;;;;;;4972641;28;20458;-59
2021/12/03 20:03:09;;;;;;;4.10;2.77;;;;;;;;;;4971620;28;20490;-59
2021/12/03 20:05:37;;;;;;;4.73;2.83;;;;;;;;;;4971643;28;20033;-59
2021/12/03 20:08:06;;;;;;;4.87;2.90;;;;;;;;;;4970784;28;20382;-59
2021/12/03 20:10:38;;;;;;;6.23;3.43;;;;;;;;;;4974350;28;20035;-59
2021/12/03 20:13:07;;;;;;;4.67;3.00;;;;;;;;;;4976081;28;20027;-59
2021/12/03 20:18:31;;;;;;;4.73;2.50;;;;;;;;;;4956890;28;20067;-59
2021/12/03 20:20:59;;;;;;;4.35;2.60;;;;;;;;;;4976132;28;20022;-59
2021/12/03 20:31:07;;;;;;;4.10;2.33;;;;;;;;;;4969936;28;20050;-59
2021/12/03 20:38:51;;;;;;;3.70;1.83;;;;;;;;;;4974601;28;20042;-59
2021/12/03 20:41:38;;;;;;;8.15;2.40;;;;;;;;;;4974822;28;20538;-60
2021/12/03 20:44:18;;;;;;;3.63;2.20;;;;;;;;;;4973302;28;20445;-60
2021/12/03 20:46:54;;;;;;;3.83;1.87;;;;;;;;;;4969504;28;20049;-59
2021/12/03 21:09:11;;;;;;;3.13;1.97;;;;;;;;;;4968925;28;20817;-59
2021/12/03 21:11:44;;;;;;;4.13;2.07;;;;;;;;;;4969186;28;20112;-59
2021/12/03 21:14:16;;;;;;;4.77;2.40;;;;;;;;;;4969180;28;20089;-60
2021/12/03 21:19:37;;;;;;;2.97;1.93;;;;;;;;;;4974309;28;20062;-60
2021/12/03 21:24:34;;;;;;;6.77;2.23;;;;;;;;;;4974070;28;20042;-59
2021/12/03 21:27:07;;;;;;;8.10;2.70;;;;;;;;;;4973921;28;20085;-59
2021/12/03 21:38:06;;;;;;;3.50;1.87;;;;;;;;;;4953818;28;20633;-60
2021/12/03 21:43:19;;;;;;;5.13;2.10;;;;;;;;;;4974841;28;20505;-59
2021/12/03 21:45:47;;;;;;;2.60;1.80;;;;;;;;;;4974448;28;20581;-60
2021/12/03 21:48:15;;;;;;;3.37;2.40;;;;;;;;;;4974844;28;20450;-59
2021/12/03 21:50:42;;;;;;;3.97;2.17;;;;;;;;;;4974437;28;20065;-59
2021/12/03 21:53:10;;;;;;;6.47;2.00;;;;;;;;;;4969163;28;20031;-59
2021/12/03 21:55:40;;;;;;;3.77;2.20;;;;;;;;;;4969833;28;20061;-59
2021/12/03 21:58:07;;;;;;;4.13;2.23;;;;;;;;;;4969214;28;20027;-59
2021/12/03 22:00:35;;;;;;;2.80;1.80;;;;;;;;;;4969579;28;20110;-59
2021/12/03 22:03:01;;;;;;;3.80;1.87;;;;;;;;;;4973199;28;20561;-59
2021/12/03 22:05:28;;;;;;;6.13;1.87;;;;;;;;;;4974194;28;20386;-59
2021/12/03 22:07:55;;;;;;;5.40;2.10;;;;;;;;;;4973849;28;20067;-59
2021/12/03 22:10:22;;;;;;;3.13;1.93;;;;;;;;;;4973805;28;20490;-59
2021/12/03 22:12:49;;;;;;;5.30;2.23;;;;;;;;;;4974362;28;20031;-59
2021/12/03 22:15:15;;;;;;;3.90;1.83;;;;;;;;;;4969189;28;20029;-59
2021/12/03 22:17:42;;;;;;;3.83;1.57;;;;;;;;;;4969287;28;20019;-59
2021/12/03 22:20:09;;;;;;;5.33;2.07;;;;;;;;;;4968566;28;20033;-59
2021/12/03 22:22:36;;;;;;;4.67;1.87;;;;;;;;;;4969045;28;20014;-59
2021/12/03 22:25:03;;;;;;;2.40;1.60;;;;;;;;;;4972646;28;20032;-59
2021/12/03 22:27:30;;;;;;;2.43;1.43;;;;;;;;;;4973503;28;20035;-60
2021/12/03 22:29:57;;;;;;;4.63;1.83;;;;;;;;;;4973954;28;20041;-59
2021/12/03 22:32:24;;;;;;;3.73;2.23;;;;;;;;;;4973108;28;20030;-59
2021/12/03 22:34:51;;;;;;;4.63;1.60;;;;;;;;;;4974177;28;20026;-59
2021/12/03 22:37:19;;;;;;;2.30;1.40;;;;;;;;;;4969636;28;20046;-59
2021/12/03 22:39:47;;;;;;;4.63;1.90;;;;;;;;;;4968928;28;20108;-60
2021/12/03 22:42:14;;;;;;;3.20;1.87;;;;;;;;;;4968319;28;20058;-59
2021/12/03 22:44:41;;;;;;;3.23;1.67;;;;;;;;;;4968086;28;20079;-59
2021/12/03 22:52:10;;;;;;;4.87;1.80;;;;;;;;;;4973141;28;20554;-59
2021/12/03 22:54:40;;;;;;;2.63;1.60;;;;;;;;;;4973139;28;20089;-59
2021/12/03 22:57:10;;;;;;;2.47;1.50;;;;;;;;;;4973473;28;20110;-59
2021/12/03 22:59:37;;;;;;;2.83;1.90;;;;;;;;;;4969882;28;20019;-59
2021/12/03 23:02:05;;;;;;;4.10;1.70;;;;;;;;;;4968277;28;20030;-59
2021/12/03 23:04:33;;;;;;;3.03;1.63;;;;;;;;;;4968180;28;20085;-59